Andover, OH (44003)

11:40 PM EST on February 25, 2017 (GMT -0500)
Maple Grove (Sunset Knolls) | | Change Station

Elev 1033 ft 41.59 °N, 80.50 °W | Updated 38 seconds ago

Snow
Snow
26.6 °F
Feels Like 21 °F
N
5.0
Wind Variable Wind from WSW

Today
High -- | Low -- °F
--% Chance of Precip.
Yesterday
High -- | Low -- °F
Precip. -- in
Pressure 29.94 in
Visibility 5.0 miles
Clouds Few 1900 ft
Mostly Cloudy 3300 ft
Overcast 4500 ft
Windchill 21 °F
Dew Point 22 °F
Humidity 85%
Rainfall 0.79 in
Snow Depth Not available.
7:02 AM 6:08 PM
Waning Crescent, 0% visible
SPECI KHZY 260436Z AUTO 27011G20KT 5SM -SN BR FEW019 BKN033 OVC045 M03/M06 A2994 RMK AO2 P0000 T10331056 TSNO
Pressure 29.94 in
Visibility 5.0 miles
Clouds Few 1900 ft
Mostly Cloudy 3300 ft
Overcast 4500 ft
Windchill 21 °F
Dew Point 22 °F
Humidity 85%
Rainfall 0.79 in
Snow Depth Not available.
7:02 AM 6:08 PM
Waning Crescent, 0% visible
SPECI KHZY 260436Z AUTO 27011G20KT 5SM -SN BR FEW019 BKN033 OVC045 M03/M06 A2994 RMK AO2 P0000 T10331056 TSNO

Get Your Daily Forecast Email!

Thanks for signing up!

Be on the lookout for a verification email in your inbox.

You'll start receiving the daily forecast at 8 AM.

×

10-Day Weather Forecast

Almanac

Astronomy

Feb. 25, 2017 Rise Set
Actual Time
Civil Twilight
Nautical Twilight
Astronomical Twilight
Moon
Length of Visible Light
Length of Day
Tomorrow will be .
, % of the Moon is Illuminated

Today's Extremes

State Highs State Lows

Community

WunderPhotos

Upload Photos

1,962,540 photos uploaded!

WunderBlog® & News

Nearby

Air Quality

  Air Quality AQ Index Pollutant
Not available.

Snow Depth

Station Depth Elevation

Earthquake Activity

City Distance Mag. Time & Date
Minimum magnitude displayed is 2.5.

Coastal Water Temperatures

Place Temperature

Stations

Nearby Weather Stations

Station Location Temp. Windchill Dew Point Humidity Wind Precip. Elev Updated Type
                   

Watches & Warnings

There are currently no watches in effect.